sensor_id;sensor_type;location;lat;lon;timestamp;P1;durP1;ratioP1;P2;durP2;ratioP2
7142;SDS011;3613;48.902;9.204;2023-11-19T00:00:48;3.30;;;2.63;;
7142;SDS011;3613;48.902;9.204;2023-11-19T00:03:16;3.53;;;2.60;;
7142;SDS011;3613;48.902;9.204;2023-11-19T00:05:42;4.40;;;3.10;;
7142;SDS011;3613;48.902;9.204;2023-11-19T00:08:10;5.97;;;2.93;;
7142;SDS011;3613;48.902;9.204;2023-11-19T00:10:38;3.17;;;2.20;;
7142;SDS011;3613;48.902;9.204;2023-11-19T00:13:04;3.17;;;2.30;;
7142;SDS011;3613;48.902;9.204;2023-11-19T00:15:30;3.27;;;2.43;;
7142;SDS011;3613;48.902;9.204;2023-11-19T00:17:55;3.50;;;2.50;;
7142;SDS011;3613;48.902;9.204;2023-11-19T00:20:21;4.83;;;2.80;;
7142;SDS011;3613;48.902;9.204;2023-11-19T00:22:47;5.67;;;3.30;;
7142;SDS011;3613;48.902;9.204;2023-11-19T00:25:16;4.47;;;2.60;;
7142;SDS011;3613;48.902;9.204;2023-11-19T00:27:43;2.90;;;2.50;;
7142;SDS011;3613;48.902;9.204;2023-11-19T00:30:11;4.23;;;2.80;;
7142;SDS011;3613;48.902;9.204;2023-11-19T00:32:38;3.77;;;2.43;;
7142;SDS011;3613;48.902;9.204;2023-11-19T00:35:06;3.50;;;2.80;;
7142;SDS011;3613;48.902;9.204;2023-11-19T00:37:35;5.37;;;2.77;;
7142;SDS011;3613;48.902;9.204;2023-11-19T00:40:01;3.63;;;2.40;;
7142;SDS011;3613;48.902;9.204;2023-11-19T00:42:30;2.93;;;2.30;;
7142;SDS011;3613;48.902;9.204;2023-11-19T00:44:55;3.07;;;2.37;;
7142;SDS011;3613;48.902;9.204;2023-11-19T00:47:21;3.43;;;2.40;;
7142;SDS011;3613;48.902;9.204;2023-11-19T00:49:47;3.53;;;2.87;;
7142;SDS011;3613;48.902;9.204;2023-11-19T00:52:16;4.97;;;2.77;;
7142;SDS011;3613;48.902;9.204;2023-11-19T00:54:42;5.97;;;2.70;;
7142;SDS011;3613;48.902;9.204;2023-11-19T00:57:08;3.20;;;2.90;;
7142;SDS011;3613;48.902;9.204;2023-11-19T00:59:41;5.03;;;3.30;;
7142;SDS011;3613;48.902;9.204;2023-11-19T01:02:09;3.87;;;3.10;;
7142;SDS011;3613;48.902;9.204;2023-11-19T01:04:38;3.73;;;2.90;;
7142;SDS011;3613;48.902;9.204;2023-11-19T01:07:03;6.33;;;3.77;;
7142;SDS011;3613;48.902;9.204;2023-11-19T01:09:30;4.73;;;3.60;;
7142;SDS011;3613;48.902;9.204;2023-11-19T01:11:59;5.77;;;3.73;;
7142;SDS011;3613;48.902;9.204;2023-11-19T01:14:26;4.60;;;3.70;;
7142;SDS011;3613;48.902;9.204;2023-11-19T01:16:54;4.73;;;3.47;;
7142;SDS011;3613;48.902;9.204;2023-11-19T01:19:22;4.53;;;3.47;;
7142;SDS011;3613;48.902;9.204;2023-11-19T01:21:48;6.07;;;4.50;;
7142;SDS011;3613;48.902;9.204;2023-11-19T01:24:17;7.23;;;3.87;;
7142;SDS011;3613;48.902;9.204;2023-11-19T01:26:45;5.60;;;4.00;;
7142;SDS011;3613;48.902;9.204;2023-11-19T01:29:12;7.43;;;3.87;;
7142;SDS011;3613;48.902;9.204;2023-11-19T01:31:45;6.47;;;3.43;;
7142;SDS011;3613;48.902;9.204;2023-11-19T01:34:11;5.13;;;3.97;;
7142;SDS011;3613;48.902;9.204;2023-11-19T01:36:37;4.30;;;3.60;;
7142;SDS011;3613;48.902;9.204;2023-11-19T01:39:04;4.17;;;3.63;;
7142;SDS011;3613;48.902;9.204;2023-11-19T01:41:35;5.03;;;3.60;;
7142;SDS011;3613;48.902;9.204;2023-11-19T01:44:06;4.83;;;4.00;;
7142;SDS011;3613;48.902;9.204;2023-11-19T01:46:31;6.10;;;4.20;;
7142;SDS011;3613;48.902;9.204;2023-11-19T01:49:00;6.27;;;4.17;;
7142;SDS011;3613;48.902;9.204;2023-11-19T01:51:27;6.20;;;4.10;;
7142;SDS011;3613;48.902;9.204;2023-11-19T01:53:57;4.53;;;3.90;;
7142;SDS011;3613;48.902;9.204;2023-11-19T01:56:24;5.70;;;4.30;;
7142;SDS011;3613;48.902;9.204;2023-11-19T01:58:51;6.47;;;4.30;;
7142;SDS011;3613;48.902;9.204;2023-11-19T02:01:19;6.63;;;4.07;;
7142;SDS011;3613;48.902;9.204;2023-11-19T02:03:48;5.60;;;3.70;;
7142;SDS011;3613;48.902;9.204;2023-11-19T02:06:13;5.37;;;3.80;;
7142;SDS011;3613;48.902;9.204;2023-11-19T02:08:40;4.93;;;3.57;;
7142;SDS011;3613;48.902;9.204;2023-11-19T02:11:11;6.87;;;3.73;;
7142;SDS011;3613;48.902;9.204;2023-11-19T02:13:37;5.30;;;3.67;;
7142;SDS011;3613;48.902;9.204;2023-11-19T02:16:03;4.57;;;3.30;;
7142;SDS011;3613;48.902;9.204;2023-11-19T02:18:29;2.53;;;1.77;;
7142;SDS011;3613;48.902;9.204;2023-11-19T02:20:58;3.37;;;2.73;;
7142;SDS011;3613;48.902;9.204;2023-11-19T02:23:25;3.93;;;2.97;;
7142;SDS011;3613;48.902;9.204;2023-11-19T02:25:59;3.30;;;2.80;;
7142;SDS011;3613;48.902;9.204;2023-11-19T02:28:38;4.80;;;4.30;;
7142;SDS011;3613;48.902;9.204;2023-11-19T02:31:05;5.17;;;3.67;;
7142;SDS011;3613;48.902;9.204;2023-11-19T02:33:34;6.03;;;3.80;;
7142;SDS011;3613;48.902;9.204;2023-11-19T02:36:06;6.97;;;3.93;;
7142;SDS011;3613;48.902;9.204;2023-11-19T02:38:35;6.23;;;4.47;;
7142;SDS011;3613;48.902;9.204;2023-11-19T02:41:02;5.47;;;4.07;;
7142;SDS011;3613;48.902;9.204;2023-11-19T02:43:30;5.90;;;3.90;;
7142;SDS011;3613;48.902;9.204;2023-11-19T02:46:01;5.70;;;4.03;;
7142;SDS011;3613;48.902;9.204;2023-11-19T02:48:27;5.53;;;4.80;;
7142;SDS011;3613;48.902;9.204;2023-11-19T02:50:53;6.00;;;4.57;;
7142;SDS011;3613;48.902;9.204;2023-11-19T02:53:18;5.00;;;4.50;;
7142;SDS011;3613;48.902;9.204;2023-11-19T02:55:47;8.13;;;5.03;;
7142;SDS011;3613;48.902;9.204;2023-11-19T02:58:15;8.13;;;5.17;;
7142;SDS011;3613;48.902;9.204;2023-11-19T03:00:49;8.10;;;5.00;;
7142;SDS011;3613;48.902;9.204;2023-11-19T03:03:22;8.80;;;4.73;;
7142;SDS011;3613;48.902;9.204;2023-11-19T03:06:03;6.20;;;4.57;;
7142;SDS011;3613;48.902;9.204;2023-11-19T03:08:34;7.27;;;4.90;;
7142;SDS011;3613;48.902;9.204;2023-11-19T03:11:02;8.20;;;5.33;;
7142;SDS011;3613;48.902;9.204;2023-11-19T03:13:30;5.20;;;4.40;;
7142;SDS011;3613;48.902;9.204;2023-11-19T03:15:58;6.43;;;4.17;;
7142;SDS011;3613;48.902;9.204;2023-11-19T03:18:24;7.67;;;4.90;;
7142;SDS011;3613;48.902;9.204;2023-11-19T03:20:49;6.30;;;4.47;;
7142;SDS011;3613;48.902;9.204;2023-11-19T03:23:15;7.97;;;4.80;;
7142;SDS011;3613;48.902;9.204;2023-11-19T03:25:43;7.20;;;4.57;;
7142;SDS011;3613;48.902;9.204;2023-11-19T03:28:08;7.00;;;4.90;;
7142;SDS011;3613;48.902;9.204;2023-11-19T03:30:36;7.13;;;4.70;;
7142;SDS011;3613;48.902;9.204;2023-11-19T03:33:04;7.33;;;5.17;;
7142;SDS011;3613;48.902;9.204;2023-11-19T03:35:29;5.83;;;4.57;;
7142;SDS011;3613;48.902;9.204;2023-11-19T03:37:55;7.03;;;5.33;;
7142;SDS011;3613;48.902;9.204;2023-11-19T03:40:21;7.20;;;4.57;;
7142;SDS011;3613;48.902;9.204;2023-11-19T03:42:47;6.87;;;4.57;;
7142;SDS011;3613;48.902;9.204;2023-11-19T03:45:13;7.00;;;4.50;;
7142;SDS011;3613;48.902;9.204;2023-11-19T03:47:39;6.77;;;5.23;;
7142;SDS011;3613;48.902;9.204;2023-11-19T03:50:05;6.83;;;4.93;;
7142;SDS011;3613;48.902;9.204;2023-11-19T03:52:32;8.90;;;5.07;;
7142;SDS011;3613;48.902;9.204;2023-11-19T03:55:01;7.23;;;5.00;;
7142;SDS011;3613;48.902;9.204;2023-11-19T03:57:28;7.37;;;4.87;;
7142;SDS011;3613;48.902;9.204;2023-11-19T03:59:56;6.23;;;5.03;;
7142;SDS011;3613;48.902;9.204;2023-11-19T04:02:23;9.73;;;4.70;;
7142;SDS011;3613;48.902;9.204;2023-11-19T04:04:55;6.87;;;4.40;;
7142;SDS011;3613;48.902;9.204;2023-11-19T04:07:20;5.67;;;4.43;;
7142;SDS011;3613;48.902;9.204;2023-11-19T04:09:46;5.13;;;4.10;;
7142;SDS011;3613;48.902;9.204;2023-11-19T04:12:11;5.27;;;4.70;;
7142;SDS011;3613;48.902;9.204;2023-11-19T04:14:37;6.43;;;4.43;;
7142;SDS011;3613;48.902;9.204;2023-11-19T04:17:03;6.67;;;4.73;;
7142;SDS011;3613;48.902;9.204;2023-11-19T04:19:31;5.93;;;4.87;;
7142;SDS011;3613;48.902;9.204;2023-11-19T04:21:57;5.97;;;4.90;;
7142;SDS011;3613;48.902;9.204;2023-11-19T04:24:23;6.93;;;4.33;;
7142;SDS011;3613;48.902;9.204;2023-11-19T04:26:49;7.50;;;5.33;;
7142;SDS011;3613;48.902;9.204;2023-11-19T04:29:17;5.87;;;4.73;;
7142;SDS011;3613;48.902;9.204;2023-11-19T04:31:43;7.63;;;4.50;;
7142;SDS011;3613;48.902;9.204;2023-11-19T04:34:09;6.43;;;4.60;;
7142;SDS011;3613;48.902;9.204;2023-11-19T04:36:38;6.10;;;4.77;;
7142;SDS011;3613;48.902;9.204;2023-11-19T04:39:06;6.00;;;4.30;;
7142;SDS011;3613;48.902;9.204;2023-11-19T04:41:49;7.33;;;4.43;;
7142;SDS011;3613;48.902;9.204;2023-11-19T04:44:18;6.20;;;4.47;;
7142;SDS011;3613;48.902;9.204;2023-11-19T04:46:44;5.30;;;4.50;;
7142;SDS011;3613;48.902;9.204;2023-11-19T04:49:12;6.47;;;4.83;;
7142;SDS011;3613;48.902;9.204;2023-11-19T04:51:43;4.90;;;3.83;;
7142;SDS011;3613;48.902;9.204;2023-11-19T04:54:16;5.90;;;2.90;;
7142;SDS011;3613;48.902;9.204;2023-11-19T04:56:44;3.30;;;2.43;;
7142;SDS011;3613;48.902;9.204;2023-11-19T04:59:11;4.47;;;2.57;;
7142;SDS011;3613;48.902;9.204;2023-11-19T05:01:39;3.53;;;2.20;;
7142;SDS011;3613;48.902;9.204;2023-11-19T05:04:07;4.10;;;2.97;;
7142;SDS011;3613;48.902;9.204;2023-11-19T05:06:33;2.50;;;2.10;;
7142;SDS011;3613;48.902;9.204;2023-11-19T05:09:02;2.67;;;2.10;;
7142;SDS011;3613;48.902;9.204;2023-11-19T05:11:35;2.70;;;2.00;;
7142;SDS011;3613;48.902;9.204;2023-11-19T05:14:04;2.60;;;2.03;;
7142;SDS011;3613;48.902;9.204;2023-11-19T05:16:30;4.03;;;2.20;;
7142;SDS011;3613;48.902;9.204;2023-11-19T05:18:56;2.00;;;1.80;;
7142;SDS011;3613;48.902;9.204;2023-11-19T05:21:22;3.40;;;2.20;;
7142;SDS011;3613;48.902;9.204;2023-11-19T05:23:48;2.07;;;1.70;;
7142;SDS011;3613;48.902;9.204;2023-11-19T05:26:21;2.40;;;1.77;;
7142;SDS011;3613;48.902;9.204;2023-11-19T05:28:48;2.27;;;1.70;;
7142;SDS011;3613;48.902;9.204;2023-11-19T05:31:15;1.90;;;1.30;;
7142;SDS011;3613;48.902;9.204;2023-11-19T05:33:41;1.30;;;1.20;;
7142;SDS011;3613;48.902;9.204;2023-11-19T05:36:07;1.10;;;1.00;;
7142;SDS011;3613;48.902;9.204;2023-11-19T05:38:38;2.07;;;1.50;;
7142;SDS011;3613;48.902;9.204;2023-11-19T05:41:04;0.83;;;0.83;;
7142;SDS011;3613;48.902;9.204;2023-11-19T05:43:34;1.10;;;1.00;;
7142;SDS011;3613;48.902;9.204;2023-11-19T05:46:00;1.17;;;0.90;;
7142;SDS011;3613;48.902;9.204;2023-11-19T05:48:28;0.93;;;0.93;;
7142;SDS011;3613;48.902;9.204;2023-11-19T05:50:53;2.17;;;1.07;;
7142;SDS011;3613;48.902;9.204;2023-11-19T05:53:19;0.90;;;0.90;;
7142;SDS011;3613;48.902;9.204;2023-11-19T05:55:45;1.40;;;1.07;;
7142;SDS011;3613;48.902;9.204;2023-11-19T05:58:14;1.13;;;1.00;;
7142;SDS011;3613;48.902;9.204;2023-11-19T06:00:40;1.10;;;0.90;;
7142;SDS011;3613;48.902;9.204;2023-11-19T06:03:09;1.13;;;1.03;;
7142;SDS011;3613;48.902;9.204;2023-11-19T06:05:35;1.23;;;1.00;;
7142;SDS011;3613;48.902;9.204;2023-11-19T06:08:03;1.03;;;1.00;;
7142;SDS011;3613;48.902;9.204;2023-11-19T06:10:31;1.40;;;1.30;;
7142;SDS011;3613;48.902;9.204;2023-11-19T06:12:59;1.10;;;1.10;;
7142;SDS011;3613;48.902;9.204;2023-11-19T06:15:25;1.33;;;1.23;;
7142;SDS011;3613;48.902;9.204;2023-11-19T06:17:53;3.63;;;2.00;;
7142;SDS011;3613;48.902;9.204;2023-11-19T06:20:24;1.30;;;1.20;;
7142;SDS011;3613;48.902;9.204;2023-11-19T06:22:50;1.37;;;1.27;;
7142;SDS011;3613;48.902;9.204;2023-11-19T06:25:18;1.63;;;1.30;;
7142;SDS011;3613;48.902;9.204;2023-11-19T06:27:43;3.23;;;1.30;;
7142;SDS011;3613;48.902;9.204;2023-11-19T06:30:09;2.03;;;1.50;;
7142;SDS011;3613;48.902;9.204;2023-11-19T06:32:36;1.30;;;1.20;;
7142;SDS011;3613;48.902;9.204;2023-11-19T06:35:02;2.10;;;1.10;;
7142;SDS011;3613;48.902;9.204;2023-11-19T06:37:30;1.23;;;1.10;;
7142;SDS011;3613;48.902;9.204;2023-11-19T06:39:58;1.53;;;1.30;;
7142;SDS011;3613;48.902;9.204;2023-11-19T06:42:24;2.10;;;1.20;;
7142;SDS011;3613;48.902;9.204;2023-11-19T06:44:52;1.03;;;0.97;;
7142;SDS011;3613;48.902;9.204;2023-11-19T06:47:18;1.27;;;1.17;;
7142;SDS011;3613;48.902;9.204;2023-11-19T06:49:44;1.33;;;1.10;;
7142;SDS011;3613;48.902;9.204;2023-11-19T06:52:10;1.43;;;1.00;;
7142;SDS011;3613;48.902;9.204;2023-11-19T06:54:35;1.40;;;1.30;;
7142;SDS011;3613;48.902;9.204;2023-11-19T06:57:03;1.73;;;1.30;;
7142;SDS011;3613;48.902;9.204;2023-11-19T06:59:32;1.93;;;1.73;;
7142;SDS011;3613;48.902;9.204;2023-11-19T07:01:58;2.77;;;2.10;;
7142;SDS011;3613;48.902;9.204;2023-11-19T07:04:24;1.23;;;1.13;;
7142;SDS011;3613;48.902;9.204;2023-11-19T07:06:49;1.47;;;1.10;;
7142;SDS011;3613;48.902;9.204;2023-11-19T07:09:18;2.13;;;1.50;;
7142;SDS011;3613;48.902;9.204;2023-11-19T07:11:46;2.37;;;1.70;;
7142;SDS011;3613;48.902;9.204;2023-11-19T07:14:12;3.50;;;1.80;;
7142;SDS011;3613;48.902;9.204;2023-11-19T07:16:37;2.63;;;2.03;;
7142;SDS011;3613;48.902;9.204;2023-11-19T07:19:06;1.97;;;1.30;;
7142;SDS011;3613;48.902;9.204;2023-11-19T07:21:34;1.73;;;1.53;;
7142;SDS011;3613;48.902;9.204;2023-11-19T07:24:00;5.60;;;1.27;;
7142;SDS011;3613;48.902;9.204;2023-11-19T07:26:30;1.40;;;1.30;;
7142;SDS011;3613;48.902;9.204;2023-11-19T07:28:56;2.77;;;1.97;;
7142;SDS011;3613;48.902;9.204;2023-11-19T07:31:22;3.20;;;2.37;;
7142;SDS011;3613;48.902;9.204;2023-11-19T07:33:48;2.27;;;1.87;;
7142;SDS011;3613;48.902;9.204;2023-11-19T07:36:16;4.50;;;2.90;;
7142;SDS011;3613;48.902;9.204;2023-11-19T07:38:42;3.70;;;1.60;;
7142;SDS011;3613;48.902;9.204;2023-11-19T07:41:07;1.40;;;1.30;;
7142;SDS011;3613;48.902;9.204;2023-11-19T07:43:38;2.30;;;1.60;;
7142;SDS011;3613;48.902;9.204;2023-11-19T07:46:07;1.20;;;1.10;;
7142;SDS011;3613;48.902;9.204;2023-11-19T07:48:40;1.93;;;1.53;;
7142;SDS011;3613;48.902;9.204;2023-11-19T07:51:08;1.63;;;1.47;;
7142;SDS011;3613;48.902;9.204;2023-11-19T07:53:33;3.43;;;1.97;;
7142;SDS011;3613;48.902;9.204;2023-11-19T07:55:59;2.50;;;1.77;;
7142;SDS011;3613;48.902;9.204;2023-11-19T07:58:25;7.73;;;4.90;;
7142;SDS011;3613;48.902;9.204;2023-11-19T08:00:51;4.70;;;2.63;;
7142;SDS011;3613;48.902;9.204;2023-11-19T08:03:19;1.50;;;1.40;;
7142;SDS011;3613;48.902;9.204;2023-11-19T08:05:45;3.47;;;1.97;;
7142;SDS011;3613;48.902;9.204;2023-11-19T08:08:11;1.80;;;1.60;;
7142;SDS011;3613;48.902;9.204;2023-11-19T08:10:37;1.93;;;1.50;;
7142;SDS011;3613;48.902;9.204;2023-11-19T08:13:04;2.10;;;1.83;;
7142;SDS011;3613;48.902;9.204;2023-11-19T08:15:30;2.07;;;1.73;;
7142;SDS011;3613;48.902;9.204;2023-11-19T08:17:56;5.93;;;3.70;;
7142;SDS011;3613;48.902;9.204;2023-11-19T08:20:22;2.10;;;1.60;;
7142;SDS011;3613;48.902;9.204;2023-11-19T08:22:52;2.60;;;2.10;;
7142;SDS011;3613;48.902;9.204;2023-11-19T08:25:20;3.07;;;1.70;;
7142;SDS011;3613;48.902;9.204;2023-11-19T08:27:45;2.47;;;1.50;;
7142;SDS011;3613;48.902;9.204;2023-11-19T08:30:11;2.10;;;1.87;;
7142;SDS011;3613;48.902;9.204;2023-11-19T08:32:40;2.00;;;1.67;;
7142;SDS011;3613;48.902;9.204;2023-11-19T08:35:06;3.27;;;2.50;;
7142;SDS011;3613;48.902;9.204;2023-11-19T08:37:32;2.00;;;1.50;;
7142;SDS011;3613;48.902;9.204;2023-11-19T08:39:58;1.60;;;1.40;;
7142;SDS011;3613;48.902;9.204;2023-11-19T08:42:24;2.00;;;1.40;;
7142;SDS011;3613;48.902;9.204;2023-11-19T08:44:50;1.67;;;1.30;;
7142;SDS011;3613;48.902;9.204;2023-11-19T08:47:19;2.03;;;1.17;;
7142;SDS011;3613;48.902;9.204;2023-11-19T08:49:47;1.53;;;1.27;;
7142;SDS011;3613;48.902;9.204;2023-11-19T08:52:16;1.50;;;1.30;;
7142;SDS011;3613;48.902;9.204;2023-11-19T08:54:42;1.30;;;1.20;;
7142;SDS011;3613;48.902;9.204;2023-11-19T08:57:08;2.30;;;1.40;;
7142;SDS011;3613;48.902;9.204;2023-11-19T08:59:34;2.77;;;1.20;;
7142;SDS011;3613;48.902;9.204;2023-11-19T09:02:03;1.50;;;1.30;;
7142;SDS011;3613;48.902;9.204;2023-11-19T09:04:29;1.90;;;1.50;;
7142;SDS011;3613;48.902;9.204;2023-11-19T09:06:54;1.80;;;1.20;;
7142;SDS011;3613;48.902;9.204;2023-11-19T09:09:26;2.37;;;1.20;;
7142;SDS011;3613;48.902;9.204;2023-11-19T09:11:54;2.57;;;1.87;;
7142;SDS011;3613;48.902;9.204;2023-11-19T09:14:20;1.93;;;1.33;;
7142;SDS011;3613;48.902;9.204;2023-11-19T09:16:50;1.03;;;1.03;;
7142;SDS011;3613;48.902;9.204;2023-11-19T09:19:16;3.00;;;2.37;;
7142;SDS011;3613;48.902;9.204;2023-11-19T09:21:42;1.17;;;1.07;;
7142;SDS011;3613;48.902;9.204;2023-11-19T09:24:08;1.20;;;1.10;;
7142;SDS011;3613;48.902;9.204;2023-11-19T09:26:34;2.47;;;1.10;;
7142;SDS011;3613;48.902;9.204;2023-11-19T09:29:04;3.43;;;2.03;;
7142;SDS011;3613;48.902;9.204;2023-11-19T09:31:30;1.93;;;1.10;;
7142;SDS011;3613;48.902;9.204;2023-11-19T09:33:58;2.13;;;1.13;;
7142;SDS011;3613;48.902;9.204;2023-11-19T09:36:23;1.97;;;1.60;;
7142;SDS011;3613;48.902;9.204;2023-11-19T09:38:54;5.13;;;2.40;;
7142;SDS011;3613;48.902;9.204;2023-11-19T09:41:19;7.43;;;4.30;;
7142;SDS011;3613;48.902;9.204;2023-11-19T09:43:45;4.07;;;2.40;;
7142;SDS011;3613;48.902;9.204;2023-11-19T09:46:14;6.90;;;3.57;;
7142;SDS011;3613;48.902;9.204;2023-11-19T09:48:43;3.43;;;2.10;;
7142;SDS011;3613;48.902;9.204;2023-11-19T09:51:10;3.23;;;2.00;;
7142;SDS011;3613;48.902;9.204;2023-11-19T09:53:36;4.27;;;2.20;;
7142;SDS011;3613;48.902;9.204;2023-11-19T09:56:06;2.10;;;1.63;;
7142;SDS011;3613;48.902;9.204;2023-11-19T09:58:35;1.47;;;1.30;;
7142;SDS011;3613;48.902;9.204;2023-11-19T10:01:02;2.67;;;1.43;;
7142;SDS011;3613;48.902;9.204;2023-11-19T10:03:32;2.23;;;1.40;;
7142;SDS011;3613;48.902;9.204;2023-11-19T10:06:00;1.90;;;1.33;;
7142;SDS011;3613;48.902;9.204;2023-11-19T10:08:27;1.30;;;1.20;;
7142;SDS011;3613;48.902;9.204;2023-11-19T10:10:53;1.30;;;1.03;;
7142;SDS011;3613;48.902;9.204;2023-11-19T10:13:18;2.37;;;1.67;;
7142;SDS011;3613;48.902;9.204;2023-11-19T10:15:44;2.70;;;1.60;;
7142;SDS011;3613;48.902;9.204;2023-11-19T10:18:10;3.23;;;1.80;;
7142;SDS011;3613;48.902;9.204;2023-11-19T10:20:40;1.70;;;1.20;;
7142;SDS011;3613;48.902;9.204;2023-11-19T10:23:06;1.87;;;1.40;;
7142;SDS011;3613;48.902;9.204;2023-11-19T10:25:32;2.17;;;1.30;;
7142;SDS011;3613;48.902;9.204;2023-11-19T10:28:01;2.23;;;1.13;;
7142;SDS011;3613;48.902;9.204;2023-11-19T10:30:30;1.20;;;1.10;;
7142;SDS011;3613;48.902;9.204;2023-11-19T10:35:29;2.83;;;1.93;;
7142;SDS011;3613;48.902;9.204;2023-11-19T10:37:55;1.43;;;1.30;;
7142;SDS011;3613;48.902;9.204;2023-11-19T10:40:20;2.73;;;1.37;;
7142;SDS011;3613;48.902;9.204;2023-11-19T10:42:47;1.10;;;1.00;;
7142;SDS011;3613;48.902;9.204;2023-11-19T10:45:22;1.33;;;1.20;;
7142;SDS011;3613;48.902;9.204;2023-11-19T10:47:49;2.07;;;1.10;;
7142;SDS011;3613;48.902;9.204;2023-11-19T10:50:16;5.63;;;1.30;;
7142;SDS011;3613;48.902;9.204;2023-11-19T10:52:42;1.80;;;1.20;;
7142;SDS011;3613;48.902;9.204;2023-11-19T10:55:09;1.60;;;1.20;;
7142;SDS011;3613;48.902;9.204;2023-11-19T10:57:39;2.93;;;1.27;;
7142;SDS011;3613;48.902;9.204;2023-11-19T11:00:09;2.17;;;1.10;;
7142;SDS011;3613;48.902;9.204;2023-11-19T11:02:41;2.10;;;0.93;;
7142;SDS011;3613;48.902;9.204;2023-11-19T11:05:12;1.97;;;0.93;;
7142;SDS011;3613;48.902;9.204;2023-11-19T11:07:41;1.83;;;1.30;;
7142;SDS011;3613;48.902;9.204;2023-11-19T11:10:09;2.23;;;1.20;;
7142;SDS011;3613;48.902;9.204;2023-11-19T11:12:36;3.80;;;1.00;;
7142;SDS011;3613;48.902;9.204;2023-11-19T11:15:06;1.93;;;1.30;;
7142;SDS011;3613;48.902;9.204;2023-11-19T11:17:36;1.60;;;1.40;;
7142;SDS011;3613;48.902;9.204;2023-11-19T11:20:04;2.50;;;1.10;;
7142;SDS011;3613;48.902;9.204;2023-11-19T11:22:41;1.03;;;0.90;;
7142;SDS011;3613;48.902;9.204;2023-11-19T11:28:29;3.03;;;1.40;;
7142;SDS011;3613;48.902;9.204;2023-11-19T11:34:29;2.17;;;1.13;;
7142;SDS011;3613;48.902;9.204;2023-11-19T11:39:35;1.10;;;1.00;;
7142;SDS011;3613;48.902;9.204;2023-11-19T11:50:18;1.57;;;1.20;;
7142;SDS011;3613;48.902;9.204;2023-11-19T11:55:25;3.17;;;1.10;;
7142;SDS011;3613;48.902;9.204;2023-11-19T11:57:51;1.00;;;1.00;;
7142;SDS011;3613;48.902;9.204;2023-11-19T12:03:00;1.33;;;1.10;;
7142;SDS011;3613;48.902;9.204;2023-11-19T12:05:27;2.10;;;1.20;;
7142;SDS011;3613;48.902;9.204;2023-11-19T12:07:55;2.17;;;1.00;;
7142;SDS011;3613;48.902;9.204;2023-11-19T12:10:29;2.63;;;1.10;;
7142;SDS011;3613;48.902;9.204;2023-11-19T12:13:16;3.40;;;1.50;;
7142;SDS011;3613;48.902;9.204;2023-11-19T12:20:59;1.53;;;1.07;;
7142;SDS011;3613;48.902;9.204;2023-11-19T12:23:26;1.53;;;1.30;;
7142;SDS011;3613;48.902;9.204;2023-11-19T12:25:54;1.70;;;1.20;;
7142;SDS011;3613;48.902;9.204;2023-11-19T12:28:21;2.20;;;0.90;;
7142;SDS011;3613;48.902;9.204;2023-11-19T12:30:51;3.20;;;1.33;;
7142;SDS011;3613;48.902;9.204;2023-11-19T12:33:20;1.63;;;1.20;;
7142;SDS011;3613;48.902;9.204;2023-11-19T12:35:47;1.70;;;0.93;;
7142;SDS011;3613;48.902;9.204;2023-11-19T12:38:23;2.43;;;1.13;;
7142;SDS011;3613;48.902;9.204;2023-11-19T12:41:07;1.20;;;1.10;;
7142;SDS011;3613;48.902;9.204;2023-11-19T12:43:35;2.37;;;1.40;;
7142;SDS011;3613;48.902;9.204;2023-11-19T12:46:11;2.40;;;1.17;;
7142;SDS011;3613;48.902;9.204;2023-11-19T12:48:42;1.10;;;1.00;;
7142;SDS011;3613;48.902;9.204;2023-11-19T12:51:13;2.23;;;1.20;;
7142;SDS011;3613;48.902;9.204;2023-11-19T12:53:51;2.40;;;1.20;;
7142;SDS011;3613;48.902;9.204;2023-11-19T12:56:22;1.47;;;1.10;;
7142;SDS011;3613;48.902;9.204;2023-11-19T12:58:47;2.20;;;1.00;;
7142;SDS011;3613;48.902;9.204;2023-11-19T13:01:16;1.30;;;1.20;;
7142;SDS011;3613;48.902;9.204;2023-11-19T13:03:44;1.30;;;1.00;;
7142;SDS011;3613;48.902;9.204;2023-11-19T13:06:13;3.93;;;1.27;;
7142;SDS011;3613;48.902;9.204;2023-11-19T13:08:44;2.13;;;1.20;;
7142;SDS011;3613;48.902;9.204;2023-11-19T13:11:15;1.40;;;1.10;;
7142;SDS011;3613;48.902;9.204;2023-11-19T13:16:21;5.40;;;1.57;;
7142;SDS011;3613;48.902;9.204;2023-11-19T13:18:47;2.77;;;1.40;;
7142;SDS011;3613;48.902;9.204;2023-11-19T13:21:12;1.70;;;1.10;;
7142;SDS011;3613;48.902;9.204;2023-11-19T13:23:40;2.07;;;1.13;;
7142;SDS011;3613;48.902;9.204;2023-11-19T13:26:06;1.43;;;1.20;;
7142;SDS011;3613;48.902;9.204;2023-11-19T13:28:32;1.70;;;1.10;;
7142;SDS011;3613;48.902;9.204;2023-11-19T13:30:58;1.43;;;1.10;;
7142;SDS011;3613;48.902;9.204;2023-11-19T13:33:26;1.70;;;1.10;;
7142;SDS011;3613;48.902;9.204;2023-11-19T13:35:51;1.57;;;1.23;;
7142;SDS011;3613;48.902;9.204;2023-11-19T13:38:19;1.83;;;1.30;;
7142;SDS011;3613;48.902;9.204;2023-11-19T13:40:45;2.77;;;1.43;;
7142;SDS011;3613;48.902;9.204;2023-11-19T13:43:10;3.80;;;0.90;;
7142;SDS011;3613;48.902;9.204;2023-11-19T13:45:36;2.13;;;1.03;;
7142;SDS011;3613;48.902;9.204;2023-11-19T13:48:02;3.07;;;1.30;;
7142;SDS011;3613;48.902;9.204;2023-11-19T13:50:30;1.40;;;1.00;;
7142;SDS011;3613;48.902;9.204;2023-11-19T13:52:59;1.80;;;1.30;;
7142;SDS011;3613;48.902;9.204;2023-11-19T13:55:25;1.77;;;1.00;;
7142;SDS011;3613;48.902;9.204;2023-11-19T13:57:51;1.90;;;1.20;;
7142;SDS011;3613;48.902;9.204;2023-11-19T14:00:16;2.23;;;1.10;;
7142;SDS011;3613;48.902;9.204;2023-11-19T14:02:46;1.50;;;1.07;;
7142;SDS011;3613;48.902;9.204;2023-11-19T14:05:12;2.57;;;1.20;;
7142;SDS011;3613;48.902;9.204;2023-11-19T14:07:40;1.13;;;1.00;;
7142;SDS011;3613;48.902;9.204;2023-11-19T14:10:06;2.17;;;1.20;;
7142;SDS011;3613;48.902;9.204;2023-11-19T14:12:34;1.83;;;1.20;;
7142;SDS011;3613;48.902;9.204;2023-11-19T14:15:00;2.33;;;1.10;;
7142;SDS011;3613;48.902;9.204;2023-11-19T14:17:26;1.97;;;1.50;;
7142;SDS011;3613;48.902;9.204;2023-11-19T14:19:57;1.60;;;1.33;;
7142;SDS011;3613;48.902;9.204;2023-11-19T14:22:23;1.33;;;1.00;;
7142;SDS011;3613;48.902;9.204;2023-11-19T14:24:49;1.87;;;1.37;;
7142;SDS011;3613;48.902;9.204;2023-11-19T14:27:17;2.03;;;0.97;;
7142;SDS011;3613;48.902;9.204;2023-11-19T14:29:43;1.83;;;1.07;;
7142;SDS011;3613;48.902;9.204;2023-11-19T14:32:12;3.30;;;1.20;;
7142;SDS011;3613;48.902;9.204;2023-11-19T14:34:38;1.90;;;1.17;;
7142;SDS011;3613;48.902;9.204;2023-11-19T14:37:03;1.40;;;1.20;;
7142;SDS011;3613;48.902;9.204;2023-11-19T14:39:31;2.30;;;1.20;;
7142;SDS011;3613;48.902;9.204;2023-11-19T14:41:57;2.10;;;1.10;;
7142;SDS011;3613;48.902;9.204;2023-11-19T14:44:26;2.03;;;1.20;;
7142;SDS011;3613;48.902;9.204;2023-11-19T14:46:52;2.60;;;1.20;;
7142;SDS011;3613;48.902;9.204;2023-11-19T14:49:20;1.23;;;1.10;;
7142;SDS011;3613;48.902;9.204;2023-11-19T14:51:45;1.60;;;1.00;;
7142;SDS011;3613;48.902;9.204;2023-11-19T14:54:11;1.97;;;1.30;;
7142;SDS011;3613;48.902;9.204;2023-11-19T14:56:36;1.47;;;1.30;;
7142;SDS011;3613;48.902;9.204;2023-11-19T14:59:04;1.93;;;1.20;;
7142;SDS011;3613;48.902;9.204;2023-11-19T15:01:34;1.40;;;1.30;;
7142;SDS011;3613;48.902;9.204;2023-11-19T15:04:00;2.13;;;1.40;;
7142;SDS011;3613;48.902;9.204;2023-11-19T15:06:28;1.93;;;1.30;;
7142;SDS011;3613;48.902;9.204;2023-11-19T15:08:56;1.93;;;1.40;;
7142;SDS011;3613;48.902;9.204;2023-11-19T15:11:21;2.23;;;1.60;;
7142;SDS011;3613;48.902;9.204;2023-11-19T15:13:49;3.83;;;1.80;;
7142;SDS011;3613;48.902;9.204;2023-11-19T15:16:15;2.73;;;1.60;;
7142;SDS011;3613;48.902;9.204;2023-11-19T15:18:47;4.10;;;1.70;;
7142;SDS011;3613;48.902;9.204;2023-11-19T15:21:12;4.30;;;1.83;;
7142;SDS011;3613;48.902;9.204;2023-11-19T15:23:40;2.77;;;1.90;;
7142;SDS011;3613;48.902;9.204;2023-11-19T15:26:06;3.57;;;2.07;;
7142;SDS011;3613;48.902;9.204;2023-11-19T15:28:35;1.73;;;1.63;;
7142;SDS011;3613;48.902;9.204;2023-11-19T15:31:01;2.53;;;1.50;;
7142;SDS011;3613;48.902;9.204;2023-11-19T15:33:27;2.67;;;1.50;;
7142;SDS011;3613;48.902;9.204;2023-11-19T15:35:53;4.53;;;1.10;;
7142;SDS011;3613;48.902;9.204;2023-11-19T15:38:19;2.00;;;1.50;;
7142;SDS011;3613;48.902;9.204;2023-11-19T15:40:45;2.43;;;1.60;;
7142;SDS011;3613;48.902;9.204;2023-11-19T15:43:13;2.27;;;1.70;;
7142;SDS011;3613;48.902;9.204;2023-11-19T15:45:41;2.70;;;1.33;;
7142;SDS011;3613;48.902;9.204;2023-11-19T15:48:07;1.87;;;1.40;;
7142;SDS011;3613;48.902;9.204;2023-11-19T15:50:32;3.60;;;1.60;;